Terminal Aerodrome Forecast
Issued by NWS

Current Version | Previous Version | Text Only | Print | Product List | Glossary On
Versions: 1 2 3 4 5 6 7 8 9 10 11 12 13 14 15 16 17 18 19 20 21
000
FTUS41 KALY 290520
TAFPSF
TAF
KPSF 290520Z 2906/3006 00000KT 3SM BR SCT250
      TEMPO 2906/2908 1SM BR BKN002
     FM290800 00000KT 1SM BR BKN002
      TEMPO 2908/2911 1/4SM FG VV001
     FM291200 26003KT P6SM SCT250
     FM291700 24006KT P6SM SCT045 BKN200=

USA.gov is the U.S. government's official web portal to all federal, state and local government web resources and services.